Airfield :
LOGIN :

Register | Disclaimer

   EN    FR    IT 

 










Legend :    VFR   Marginal VFR   IFR   Intensive IFR   Very Intensive IFR
Visi :
Ceiling :
>= 8 km
>= 3000ft
5 to 8 km
1000 to 3000 ft
1500m to 5 km
500 to 1000 ft
800 to 1500m
200 to 500 ft
< 800m
< 200 ft
Symbols :   Thunderstorms  Fog  Heavy snow  Heavy precipitations  Wind > 20 kt
SIGMETs :     Misc.  Thunderstorms  Icing  Turbulence  Mountain Waves  Volcanic Ashes






- Airport Elevation : 273 ft


EGXT - RAF Wittering Stamford

CURRENT METAR :
  • 251450Z 31006KT 9999 FEW029 BKN033 BKN047 08/06 Q1012 BLU

EXPIRED METARs :
  • 251350Z 32010KT 9999 SCT006 BKN030 07/07 Q1011 YLO1
  • 251320Z 33010KT 9999 SCT007 BKN030 07/07 Q1011 GRN
  • 251250Z 32012KT 2600 DZ BKN003 BKN007 BKN028 07/07 Q1011 YLO2

TAF TAF EGXT
Valid from the 25 at 15:00 until the 25 at 18:00 UTC


251353Z 2515/2518 32006KT 9999 BKN032
PROB30
TEMPO 2515/2516 SCT012



MET'MAP, your aeronautical weather chart ! - Copyright ORBIFLY December 2007 - Disclaimer

ORBIFLY MET'MAP TEAM :

Programming & Development : Alexandra Zaïnal
Concept & original design : Baudouin d'Aumeries
Assistance for programming : Marc-Olivier Méhu
Technical & hardware support : Manuel Goepfert

Contact : metmap@orbifly.com




SOURCES & CREDITS :

   NOAA